Time;durP1;ratioP1;P1;durP2;ratioP2;P2;SDS_P1;SDS_P2;PMS_P1;PMS_P2;Temp;Humidity;BMP_temperature;BMP_pressure;BME280_temperature;BME280_humidity;BME280_pressure;Samples;Min_cycle;Max_cycle;Signal;HPM_P1;HPM_P2
2022/04/23 00:01:54;;;;;;;0.40;0.40;;;7.10;99.90;;;;;;5017915;28;20473;-70
2022/04/23 00:04:43;;;;;;;0.40;0.40;;;7.10;99.90;;;;;;5018768;28;20544;-72
2022/04/23 00:07:31;;;;;;;0.50;0.50;;;7.00;99.90;;;;;;5019005;28;20943;-70
2022/04/23 00:10:21;;;;;;;0.40;0.40;;;7.00;99.90;;;;;;5017432;28;20433;-71
2022/04/23 00:13:09;;;;;;;0.50;0.50;;;7.00;99.90;;;;;;5015726;28;20473;-70
2022/04/23 00:15:57;;;;;;;0.40;0.40;;;7.00;99.90;;;;;;5018366;28;20441;-71
2022/04/23 00:18:45;;;;;;;0.40;0.40;;;6.90;99.90;;;;;;5019436;28;20434;-71
2022/04/23 00:21:35;;;;;;;0.50;0.50;;;6.90;99.90;;;;;;5017254;28;20946;-71
2022/04/23 00:24:23;;;;;;;0.50;0.50;;;6.90;99.90;;;;;;5016415;28;20438;-71
2022/04/23 00:27:11;;;;;;;1.13;1.13;;;6.90;99.90;;;;;;5017591;28;20485;-71
2022/04/23 00:29:59;;;;;;;0.40;0.40;;;6.80;99.90;;;;;;5018140;28;20422;-71
2022/04/23 00:32:47;;;;;;;0.40;0.40;;;6.80;99.90;;;;;;5016817;28;20873;-70
2022/04/23 00:35:36;;;;;;;0.90;0.90;;;6.80;99.90;;;;;;5017024;28;20485;-71
2022/04/23 00:38:26;;;;;;;0.40;0.40;;;6.80;99.90;;;;;;5017481;28;20434;-71
2022/04/23 00:41:43;;;;;;;0.50;0.50;;;6.70;99.90;;;;;;5017487;28;20942;-72
2022/04/23 00:44:22;;;;;;;0.47;0.47;;;6.70;99.90;;;;;;5016119;28;20547;-71
2022/04/23 00:47:10;;;;;;;0.40;0.40;;;6.70;99.90;;;;;;4999558;28;20446;-71
2022/04/23 00:49:58;;;;;;;0.50;0.50;;;6.70;99.90;;;;;;5016929;28;20781;-71
2022/04/23 00:52:46;;;;;;;0.50;0.50;;;6.60;99.90;;;;;;5015311;28;20414;-71
2022/04/23 00:55:37;;;;;;;0.40;0.40;;;6.60;99.90;;;;;;5016491;28;21026;-71
2022/04/23 00:58:27;;;;;;;1.27;1.17;;;6.60;99.90;;;;;;5015540;28;20434;-71
2022/04/23 01:01:15;;;;;;;0.40;0.40;;;6.60;99.90;;;;;;5016728;28;20441;-70
2022/04/23 01:04:05;;;;;;;0.40;0.40;;;6.60;99.90;;;;;;5015440;28;20476;-71
2022/04/23 01:06:53;;;;;;;1.70;1.70;;;6.50;99.90;;;;;;5016725;28;20844;-70
2022/04/23 01:09:44;;;;;;;0.40;0.40;;;6.50;99.90;;;;;;5016938;28;20425;-70
2022/04/23 01:12:35;;;;;;;0.40;0.40;;;6.50;99.90;;;;;;5014921;28;20836;-72
2022/04/23 01:15:23;;;;;;;0.50;0.50;;;6.50;99.90;;;;;;5016128;28;20939;-71
2022/04/23 01:18:11;;;;;;;0.40;0.40;;;6.50;99.90;;;;;;5015787;28;20426;-70
2022/04/23 01:21:02;;;;;;;0.50;0.50;;;6.40;99.90;;;;;;5015623;28;20529;-70
2022/04/23 01:23:53;;;;;;;0.50;0.50;;;6.40;99.90;;;;;;5015661;28;20472;-70
2022/04/23 01:26:41;;;;;;;0.50;0.50;;;6.40;99.90;;;;;;5014294;28;20437;-71
2022/04/23 01:29:29;;;;;;;1.00;1.00;;;6.30;99.90;;;;;;5013107;28;20422;-70
2022/04/23 01:32:17;;;;;;;0.40;0.40;;;6.50;99.90;;;;;;5015697;28;20841;-71
2022/04/23 01:35:06;;;;;;;0.50;0.50;;;6.40;99.90;;;;;;5014940;28;20457;-71
2022/04/23 01:37:56;;;;;;;0.50;0.50;;;6.40;99.90;;;;;;5015500;28;20481;-71
2022/04/23 01:40:44;;;;;;;0.50;0.50;;;6.30;99.90;;;;;;5014799;28;20437;-71
2022/04/23 01:43:32;;;;;;;0.50;0.50;;;6.30;99.90;;;;;;5016058;28;20465;-71
2022/04/23 01:46:20;;;;;;;0.50;0.50;;;6.30;99.90;;;;;;5017750;28;20484;-71
2022/04/23 01:49:08;;;;;;;0.50;0.50;;;6.20;99.90;;;;;;5014336;28;20509;-71
2022/04/23 01:51:56;;;;;;;0.47;0.47;;;6.20;99.90;;;;;;5015096;28;20433;-71
2022/04/23 01:54:46;;;;;;;0.50;0.50;;;6.10;99.90;;;;;;5015507;28;20566;-69
2022/04/23 01:57:34;;;;;;;0.40;0.40;;;6.20;99.90;;;;;;5015363;28;20418;-72
2022/04/23 02:00:22;;;;;;;0.90;0.90;;;;;;;;;;5015146;28;20477;-71
2022/04/23 02:03:10;;;;;;;0.40;0.40;;;6.10;99.90;;;;;;5015011;28;20497;-70
2022/04/23 02:05:58;;;;;;;0.50;0.50;;;6.20;99.90;;;;;;5014206;28;20426;-70
2022/04/23 02:08:46;;;;;;;0.40;0.40;;;6.10;99.90;;;;;;5015075;28;20433;-71
2022/04/23 02:11:36;;;;;;;0.50;0.50;;;6.10;99.90;;;;;;5023204;28;20527;-71
2022/04/23 02:14:24;;;;;;;0.50;0.50;;;6.00;99.90;;;;;;5022634;28;20450;-70
2022/04/23 02:17:12;;;;;;;0.40;0.40;;;6.00;99.90;;;;;;5014797;28;20418;-71
2022/04/23 02:20:03;;;;;;;1.13;1.13;;;6.00;99.90;;;;;;5015001;28;20426;-71
2022/04/23 02:22:51;;;;;;;0.50;0.50;;;6.00;99.90;;;;;;5013725;28;20508;-71
2022/04/23 02:25:39;;;;;;;0.40;0.40;;;6.00;99.90;;;;;;5020905;28;20430;-70
2022/04/23 02:28:28;;;;;;;0.60;0.60;;;5.90;99.90;;;;;;5020969;28;20430;-71
2022/04/23 02:31:17;;;;;;;0.40;0.40;;;5.90;99.90;;;;;;5020435;28;20434;-70
2022/04/23 02:34:05;;;;;;;1.47;1.13;;;5.90;99.90;;;;;;5024034;28;20509;-71
2022/04/23 02:36:53;;;;;;;0.50;0.50;;;5.80;99.90;;;;;;5022459;28;20428;-71
2022/04/23 02:39:41;;;;;;;0.50;0.50;;;5.90;99.90;;;;;;5019841;28;20426;-71
2022/04/23 02:42:29;;;;;;;0.40;0.40;;;5.80;99.90;;;;;;5020000;28;20426;-70
2022/04/23 02:45:20;;;;;;;0.50;0.50;;;5.80;99.90;;;;;;5020681;28;20437;-70
2022/04/23 02:48:09;;;;;;;0.50;0.50;;;5.80;99.90;;;;;;5020192;28;20432;-70
2022/04/23 02:50:58;;;;;;;0.40;0.40;;;5.70;99.90;;;;;;5020686;28;20429;-71
2022/04/23 02:53:46;;;;;;;0.40;0.40;;;5.80;99.90;;;;;;5019743;28;20887;-71
2022/04/23 02:56:34;;;;;;;0.40;0.40;;;5.80;99.90;;;;;;5018783;28;20426;-70
2022/04/23 02:59:23;;;;;;;0.50;0.50;;;5.80;99.90;;;;;;5013476;28;20429;-71
2022/04/23 03:02:12;;;;;;;0.50;0.50;;;5.80;99.90;;;;;;5013289;28;20474;-70
2022/04/23 03:05:00;;;;;;;0.40;0.40;;;5.70;99.90;;;;;;5013072;28;20462;-70
2022/04/23 03:07:50;;;;;;;0.50;0.50;;;5.70;99.90;;;;;;5013827;28;20430;-70
2022/04/23 03:10:39;;;;;;;0.50;0.50;;;5.80;99.90;;;;;;5012331;28;20440;-70
2022/04/23 03:13:27;;;;;;;0.40;0.40;;;5.70;99.90;;;;;;5012219;28;20959;-71
2022/04/23 03:16:15;;;;;;;0.40;0.40;;;5.60;99.90;;;;;;5013957;28;20488;-70
2022/04/23 03:19:04;;;;;;;0.50;0.50;;;5.70;99.90;;;;;;5014807;28;20477;-70
2022/04/23 03:21:53;;;;;;;0.40;0.40;;;5.60;99.90;;;;;;5011916;28;20509;-70
2022/04/23 03:24:41;;;;;;;0.50;0.50;;;5.60;99.90;;;;;;5012877;28;20509;-71
2022/04/23 03:27:30;;;;;;;0.40;0.40;;;5.60;99.90;;;;;;5013717;28;20445;-71
2022/04/23 03:30:20;;;;;;;0.40;0.40;;;5.60;99.90;;;;;;5012764;28;20418;-71
2022/04/23 03:33:09;;;;;;;0.40;0.40;;;5.50;99.90;;;;;;5013291;28;20997;-71
2022/04/23 03:35:58;;;;;;;0.40;0.40;;;5.50;99.90;;;;;;5013738;28;20951;-71
2022/04/23 03:38:47;;;;;;;0.50;0.50;;;5.60;99.90;;;;;;5012867;28;20430;-71
2022/04/23 03:41:35;;;;;;;0.40;0.40;;;5.50;99.90;;;;;;5012131;28;20473;-71
2022/04/23 03:44:23;;;;;;;0.50;0.50;;;5.50;99.90;;;;;;5012168;28;20469;-71
2022/04/23 03:47:11;;;;;;;0.60;0.60;;;5.40;99.90;;;;;;5012439;28;20934;-71
2022/04/23 03:50:04;;;;;;;0.50;0.50;;;5.50;99.90;;;;;;5012245;28;20426;-71
2022/04/23 03:52:53;;;;;;;0.50;0.50;;;5.50;99.90;;;;;;5012487;28;20430;-71
2022/04/23 03:55:41;;;;;;;0.50;0.50;;;5.40;99.90;;;;;;5012685;28;20425;-71
2022/04/23 03:58:29;;;;;;;0.50;0.50;;;5.50;99.90;;;;;;5012545;28;20418;-71
2022/04/23 04:01:17;;;;;;;0.50;0.50;;;5.40;99.90;;;;;;5012015;28;20430;-70
2022/04/23 04:04:05;;;;;;;0.50;0.50;;;5.30;99.90;;;;;;5012870;28;20458;-71
2022/04/23 04:06:54;;;;;;;0.50;0.50;;;5.30;99.90;;;;;;5011950;28;20466;-71
2022/04/23 04:09:43;;;;;;;0.40;0.40;;;5.30;99.90;;;;;;5012420;28;20456;-71
2022/04/23 04:12:31;;;;;;;0.40;0.40;;;5.30;99.90;;;;;;5012007;28;20856;-70
2022/04/23 04:15:20;;;;;;;0.50;0.50;;;5.30;99.90;;;;;;5012828;28;20508;-70
2022/04/23 04:18:09;;;;;;;0.50;0.50;;;5.30;99.90;;;;;;5014220;28;20426;-70
2022/04/23 04:20:58;;;;;;;0.50;0.50;;;5.30;99.90;;;;;;5016650;28;20429;-71
2022/04/23 04:23:46;;;;;;;4.63;4.43;;;5.40;99.90;;;;;;5011821;28;20445;-71
2022/04/23 04:26:36;;;;;;;0.70;0.70;;;5.40;99.90;;;;;;5011281;28;20813;-71
2022/04/23 04:29:25;;;;;;;1.93;1.83;;;5.50;99.90;;;;;;5012860;28;20488;-71
2022/04/23 04:32:13;;;;;;;0.47;0.47;;;5.40;99.90;;;;;;5015688;28;20445;-71
2022/04/23 04:35:02;;;;;;;0.47;0.47;;;5.50;99.90;;;;;;5015804;28;20421;-70
2022/04/23 04:37:50;;;;;;;0.50;0.50;;;5.60;99.90;;;;;;5016587;28;20426;-71
2022/04/23 04:40:38;;;;;;;0.50;0.50;;;5.60;99.90;;;;;;5015317;28;20426;-71
2022/04/23 04:43:27;;;;;;;0.50;0.50;;;5.60;99.90;;;;;;5015046;28;20469;-70
2022/04/23 04:46:15;;;;;;;0.50;0.50;;;5.70;99.90;;;;;;5016177;28;20451;-71
2022/04/23 04:49:05;;;;;;;0.40;0.40;;;5.80;99.90;;;;;;5015792;28;21026;-71
2022/04/23 04:51:54;;;;;;;0.40;0.40;;;5.80;99.90;;;;;;5015592;28;20437;-69
2022/04/23 04:54:42;;;;;;;0.50;0.50;;;5.80;99.90;;;;;;5016078;28;20528;-70
2022/04/23 04:57:30;;;;;;;0.40;0.40;;;5.90;99.90;;;;;;5015804;28;20422;-70
2022/04/23 05:00:20;;;;;;;0.50;0.50;;;6.00;99.90;;;;;;5015243;28;20422;-69
2022/04/23 05:03:08;;;;;;;0.40;0.40;;;6.10;99.90;;;;;;5015612;28;20966;-70
2022/04/23 05:05:56;;;;;;;0.40;0.40;;;6.20;99.90;;;;;;5015520;28;20462;-70
2022/04/23 05:08:45;;;;;;;0.40;0.40;;;6.30;99.90;;;;;;5015103;28;20473;-71
2022/04/23 05:11:33;;;;;;;0.50;0.50;;;6.30;99.90;;;;;;5016325;28;20434;-71
2022/04/23 05:14:21;;;;;;;0.40;0.40;;;6.30;99.90;;;;;;5015712;28;20446;-72
2022/04/23 05:17:11;;;;;;;0.50;0.50;;;6.40;99.90;;;;;;5015405;28;20434;-70
2022/04/23 05:19:59;;;;;;;0.40;0.40;;;6.40;99.90;;;;;;5015389;28;20426;-71
2022/04/23 05:22:47;;;;;;;0.40;0.40;;;6.50;99.90;;;;;;5015785;28;20421;-71
2022/04/23 05:25:35;;;;;;;0.40;0.40;;;6.60;99.90;;;;;;5015747;28;20466;-71
2022/04/23 05:28:24;;;;;;;0.40;0.40;;;6.70;99.90;;;;;;5015554;28;20955;-71
2022/04/23 05:31:12;;;;;;;0.40;0.40;;;6.70;99.90;;;;;;5015924;28;20562;-72
2022/04/23 05:34:01;;;;;;;0.73;0.73;;;6.80;99.90;;;;;;5015872;28;20457;-72
2022/04/23 05:36:49;;;;;;;0.40;0.40;;;7.00;99.90;;;;;;5015351;28;20422;-70
2022/04/23 05:39:37;;;;;;;0.50;0.50;;;7.20;99.90;;;;;;5014972;28;20426;-71
2022/04/23 05:42:25;;;;;;;0.50;0.50;;;7.20;99.90;;;;;;5014856;28;20446;-71
2022/04/23 05:45:13;;;;;;;0.40;0.40;;;7.20;99.90;;;;;;5015246;28;20628;-71
2022/04/23 05:48:01;;;;;;;1.80;1.70;;;7.30;99.90;;;;;;5015265;28;20426;-70
2022/04/23 05:50:51;;;;;;;0.50;0.50;;;7.40;99.90;;;;;;5015736;28;20517;-71
2022/04/23 05:53:39;;;;;;;0.40;0.40;;;7.50;99.90;;;;;;5014171;28;20456;-71
2022/04/23 05:56:27;;;;;;;0.50;0.50;;;7.60;99.90;;;;;;5015264;28;20437;-70
2022/04/23 05:59:15;;;;;;;0.40;0.40;;;7.70;99.90;;;;;;5014052;28;20450;-70
2022/04/23 06:02:04;;;;;;;0.40;0.40;;;7.80;99.90;;;;;;5015038;28;20484;-71
2022/04/23 06:04:58;;;;;;;0.40;0.40;;;7.90;99.90;;;;;;5013669;28;21057;-71
2022/04/23 06:07:47;;;;;;;1.90;1.80;;;8.00;99.90;;;;;;5013718;28;20845;-71
2022/04/23 06:10:35;;;;;;;0.40;0.40;;;8.10;99.90;;;;;;5019480;28;21013;-71
2022/04/23 06:13:23;;;;;;;0.40;0.40;;;8.20;99.90;;;;;;5016789;28;20901;-71
2022/04/23 06:16:11;;;;;;;0.40;0.40;;;8.30;99.90;;;;;;5014048;28;20429;-71
2022/04/23 06:19:00;;;;;;;0.40;0.40;;;8.40;99.90;;;;;;5013241;28;20888;-72
2022/04/23 06:21:48;;;;;;;0.40;0.40;;;8.50;99.90;;;;;;5012867;28;20426;-70
2022/04/23 06:24:37;;;;;;;0.40;0.40;;;8.50;99.90;;;;;;5013191;28;20442;-72
2022/04/23 06:27:26;;;;;;;0.40;0.40;;;8.60;99.90;;;;;;5017389;28;20429;-72
2022/04/23 06:30:15;;;;;;;0.40;0.40;;;8.70;99.90;;;;;;5013958;28;20434;-73
2022/04/23 06:33:04;;;;;;;0.40;0.40;;;8.80;99.90;;;;;;5013033;28;20446;-71
2022/04/23 06:35:52;;;;;;;0.50;0.50;;;8.90;99.90;;;;;;5013579;28;20422;-71
2022/04/23 06:38:40;;;;;;;0.40;0.40;;;9.00;99.90;;;;;;5013153;28;20422;-71
2022/04/23 06:41:29;;;;;;;0.40;0.40;;;9.20;99.90;;;;;;5013974;28;20806;-71
2022/04/23 06:44:17;;;;;;;1.03;1.03;;;9.20;99.90;;;;;;5013383;28;20524;-72
2022/04/23 06:47:06;;;;;;;0.40;0.40;;;9.30;99.90;;;;;;5012658;28;20462;-71
2022/04/23 06:49:57;;;;;;;0.40;0.40;;;9.40;99.90;;;;;;5014521;28;20513;-70
2022/04/23 06:52:45;;;;;;;0.40;0.40;;;9.60;99.90;;;;;;5013268;28;20426;-71
2022/04/23 06:55:34;;;;;;;0.40;0.40;;;9.60;99.90;;;;;;5013777;28;21006;-71
2022/04/23 06:58:23;;;;;;;1.33;1.23;;;9.80;99.90;;;;;;5012887;28;20445;-71
2022/04/23 07:01:11;;;;;;;1.30;1.30;;;9.90;99.90;;;;;;5013646;28;20426;-71
2022/04/23 07:03:59;;;;;;;0.47;0.47;;;9.90;99.90;;;;;;5014831;28;20477;-70
2022/04/23 07:06:47;;;;;;;0.40;0.40;;;10.10;99.90;;;;;;5015244;28;20466;-71
2022/04/23 07:09:35;;;;;;;0.40;0.40;;;10.20;99.90;;;;;;5014101;28;20476;-70
2022/04/23 07:12:23;;;;;;;0.53;0.53;;;10.20;99.90;;;;;;5014140;28;20453;-71
2022/04/23 07:15:15;;;;;;;0.40;0.40;;;10.30;99.90;;;;;;5014302;28;20458;-70
2022/04/23 07:18:03;;;;;;;0.40;0.40;;;10.40;99.90;;;;;;5014700;28;20514;-70
2022/04/23 07:20:51;;;;;;;0.40;0.40;;;10.40;99.90;;;;;;5012602;28;20962;-71
2022/04/23 07:26:47;;;;;;;0.40;0.40;;;10.70;99.90;;;;;;5032918;28;20499;-70
2022/04/23 07:29:35;;;;;;;0.40;0.40;;;10.70;99.90;;;;;;5031627;28;20429;-71
2022/04/23 07:32:25;;;;;;;0.40;0.40;;;10.80;99.90;;;;;;5034203;28;20421;-70
2022/04/23 07:38:21;;;;;;;0.60;0.60;;;11.00;99.90;;;;;;5034268;28;20429;-71
2022/04/23 07:41:11;;;;;;;0.40;0.40;;;11.20;99.90;;;;;;5033364;28;20599;-71
2022/04/23 07:44:00;;;;;;;0.40;0.40;;;11.30;99.90;;;;;;5034054;28;20457;-71
2022/04/23 07:46:48;;;;;;;0.40;0.40;;;11.40;99.90;;;;;;5032654;28;20492;-70
2022/04/23 07:49:38;;;;;;;0.40;0.40;;;11.40;99.90;;;;;;5033596;28;20453;-72
2022/04/23 07:52:26;;;;;;;0.47;0.47;;;11.60;99.90;;;;;;5033831;28;20421;-72
2022/04/23 07:55:14;;;;;;;0.40;0.40;;;11.60;99.90;;;;;;5034416;28;20429;-71
2022/04/23 07:58:04;;;;;;;0.40;0.40;;;11.70;99.90;;;;;;5032412;28;20949;-71
2022/04/23 08:00:52;;;;;;;0.40;0.40;;;11.80;99.90;;;;;;5033466;28;20957;-72
2022/04/23 08:03:41;;;;;;;0.50;0.50;;;11.90;99.90;;;;;;5032375;28;20453;-71
2022/04/23 08:06:32;;;;;;;0.40;0.40;;;12.00;99.90;;;;;;5035411;28;20471;-71
2022/04/23 08:09:20;;;;;;;0.40;0.40;;;12.00;99.90;;;;;;5037136;28;20515;-70
2022/04/23 08:12:10;;;;;;;0.40;0.40;;;12.10;99.90;;;;;;5038243;28;20433;-70
2022/04/23 08:14:58;;;;;;;0.40;0.40;;;12.20;99.90;;;;;;5036850;28;20456;-70
2022/04/23 08:17:47;;;;;;;0.40;0.40;;;12.30;99.90;;;;;;5038182;28;20417;-70
2022/04/23 08:20:35;;;;;;;0.50;0.50;;;12.30;99.90;;;;;;5040346;28;20421;-71
2022/04/23 08:23:24;;;;;;;0.40;0.40;;;12.40;99.90;;;;;;5037917;28;20441;-71
2022/04/23 08:26:12;;;;;;;0.60;0.60;;;12.50;99.90;;;;;;5037676;28;20981;-71
2022/04/23 08:32:07;;;;;;;0.40;0.40;;;12.50;99.90;;;;;;5036705;28;20949;-70
2022/04/23 08:34:56;;;;;;;0.40;0.40;;;12.60;99.90;;;;;;5038856;28;20441;-71
2022/04/23 08:37:46;;;;;;;0.40;0.40;;;12.70;99.90;;;;;;5034543;28;20436;-71
2022/04/23 08:40:38;;;;;;;0.40;0.40;;;12.80;99.90;;;;;;5023531;28;20438;-71
2022/04/23 08:43:26;;;;;;;0.40;0.40;;;12.90;99.90;;;;;;5014179;28;20999;-70
2022/04/23 08:46:17;;;;;;;1.53;1.43;;;12.90;99.90;;;;;;5016417;28;20469;-70
2022/04/23 08:49:10;;;;;;;0.40;0.40;;;12.90;99.90;;;;;;5016925;28;20418;-69
2022/04/23 08:52:16;;;;;;;0.40;0.40;;;13.00;99.90;;;;;;5016219;28;20802;-69
2022/04/23 08:55:06;;;;;;;0.40;0.40;;;13.10;99.90;;;;;;5016624;28;20430;-70
2022/04/23 08:57:56;;;;;;;0.53;0.53;;;13.10;99.90;;;;;;5017487;28;20806;-71
2022/04/23 09:00:44;;;;;;;0.50;0.50;;;13.20;99.90;;;;;;5016471;28;20430;-72
2022/04/23 09:03:32;;;;;;;0.40;0.40;;;13.20;99.90;;;;;;5016246;28;20497;-70
2022/04/23 09:06:20;;;;;;;0.40;0.40;;;13.20;99.90;;;;;;5015581;28;20466;-69
2022/04/23 09:09:13;;;;;;;0.40;0.40;;;13.30;99.90;;;;;;5016253;28;20426;-71
2022/04/23 09:12:01;;;;;;;0.40;0.40;;;13.40;99.90;;;;;;5016783;28;20445;-70
2022/04/23 09:14:52;;;;;;;0.93;0.83;;;13.40;99.90;;;;;;5016496;28;20454;-70
2022/04/23 09:24:10;;;;;;;0.80;0.80;;;13.90;99.90;;;;;;5019401;28;20446;-71
2022/04/23 09:27:06;;;;;;;0.70;0.70;;;14.10;99.90;;;;;;5015949;28;20466;-71
2022/04/23 09:29:59;;;;;;;0.40;0.40;;;14.10;99.90;;;;;;5016877;28;20426;-70
2022/04/23 09:32:58;;;;;;;0.40;0.40;;;14.20;99.90;;;;;;5015879;28;20203;-71
2022/04/23 09:35:57;;;;;;;0.40;0.40;;;14.30;99.90;;;;;;5016090;28;20426;-71
2022/04/23 09:38:59;;;;;;;0.40;0.40;;;14.30;99.90;;;;;;5015883;28;20656;-71
2022/04/23 09:41:47;;;;;;;0.77;0.77;;;14.20;99.90;;;;;;5015983;28;20209;-71
2022/04/23 09:44:35;;;;;;;0.40;0.40;;;14.30;99.90;;;;;;5015666;28;20520;-72
2022/04/23 09:47:32;;;;;;;1.13;1.07;;;14.20;99.90;;;;;;5015764;28;20557;-71
2022/04/23 09:50:20;;;;;;;0.40;0.40;;;14.40;99.90;;;;;;5016066;28;20426;-71
2022/04/23 09:53:10;;;;;;;0.40;0.40;;;14.40;99.90;;;;;;5015910;28;20795;-71
2022/04/23 09:56:00;;;;;;;0.40;0.40;;;14.60;99.90;;;;;;5015981;28;20583;-70
2022/04/23 09:58:48;;;;;;;0.40;0.40;;;14.70;99.90;;;;;;5015643;28;20211;-70
2022/04/23 10:01:36;;;;;;;0.40;0.40;;;14.90;99.90;;;;;;5014652;28;20430;-71
2022/04/23 10:04:27;;;;;;;0.40;0.40;;;14.90;99.90;;;;;;5015603;28;20226;-71
2022/04/23 10:07:18;;;;;;;0.40;0.40;;;15.00;99.90;;;;;;5015660;28;20305;-71
2022/04/23 10:10:12;;;;;;;0.50;0.50;;;15.00;99.90;;;;;;5016560;28;20206;-71
2022/04/23 10:13:04;;;;;;;1.00;0.97;;;15.10;99.90;;;;;;5016503;28;20449;-70
2022/04/23 10:15:54;;;;;;;0.60;0.53;;;15.30;99.90;;;;;;5016292;28;20258;-71
2022/04/23 10:18:43;;;;;;;0.40;0.40;;;15.30;99.90;;;;;;5015201;28;20430;-70
2022/04/23 10:21:40;;;;;;;0.40;0.40;;;15.30;99.90;;;;;;5015219;28;20284;-70
2022/04/23 10:24:35;;;;;;;0.40;0.40;;;15.40;99.90;;;;;;5015944;28;20226;-70
2022/04/23 10:27:26;;;;;;;0.40;0.40;;;15.50;99.90;;;;;;5015204;28;20621;-71
2022/04/23 10:30:15;;;;;;;0.40;0.40;;;15.50;99.90;;;;;;5015737;28;20199;-70
2022/04/23 10:33:26;;;;;;;0.95;0.95;;;15.50;99.90;;;;;;5015299;28;20229;-69
2022/04/23 10:36:15;;;;;;;0.40;0.40;;;15.60;99.90;;;;;;5015475;28;20234;-70
2022/04/23 10:39:23;;;;;;;0.70;0.70;;;15.80;99.90;;;;;;5016037;28;20210;-69
2022/04/23 10:42:15;;;;;;;0.40;0.40;;;16.00;99.10;;;;;;5016533;28;20205;-71
2022/04/23 10:45:06;;;;;;;0.40;0.40;;;16.00;98.80;;;;;;5015649;28;20255;-70
2022/04/23 10:48:24;;;;;;;0.60;0.60;;;16.10;98.70;;;;;;5015217;28;20278;-70
2022/04/23 10:51:18;;;;;;;1.13;0.87;;;16.20;97.50;;;;;;5013975;28;20207;-72
2022/04/23 10:54:07;;;;;;;0.50;0.50;;;16.40;97.50;;;;;;5012309;28;20647;-71
2022/04/23 10:56:57;;;;;;;0.40;0.40;;;16.60;97.20;;;;;;5013753;28;20199;-71
2022/04/23 10:59:47;;;;;;;0.40;0.40;;;16.90;96.50;;;;;;5013326;28;20254;-75
2022/04/23 11:02:37;;;;;;;0.40;0.40;;;17.10;95.90;;;;;;5011784;28;20580;-73
2022/04/23 11:14:48;;;;;;;0.50;0.50;;;17.80;93.30;;;;;;5011649;28;20265;-72
2022/04/23 11:17:49;;;;;;;0.40;0.40;;;18.00;93.10;;;;;;5012340;28;20191;-73
2022/04/23 11:20:39;;;;;;;0.40;0.40;;;18.20;92.40;;;;;;5012368;28;20198;-75
2022/04/23 11:23:28;;;;;;;0.40;0.40;;;18.20;91.30;;;;;;5011517;28;20647;-72
2022/04/23 11:26:18;;;;;;;1.45;1.25;;;18.20;90.80;;;;;;5012821;28;20637;-73
2022/04/23 11:29:06;;;;;;;0.40;0.40;;;17.90;89.20;;;;;;5012198;28;20785;-73
2022/04/23 11:31:56;;;;;;;0.40;0.40;;;17.90;88.30;;;;;;5012304;28;20202;-73
2022/04/23 11:34:56;;;;;;;0.50;0.50;;;17.60;88.30;;;;;;5011958;28;20597;-75
2022/04/23 11:37:44;;;;;;;1.70;1.05;;;17.40;89.00;;;;;;5012591;28;20195;-73
2022/04/23 11:40:35;;;;;;;0.98;0.98;;;17.30;89.00;;;;;;5016596;28;20206;-72
2022/04/23 11:43:36;;;;;;;0.40;0.40;;;17.10;89.40;;;;;;5015406;28;20292;-73
2022/04/23 11:46:25;;;;;;;0.50;0.50;;;17.30;90.20;;;;;;5016836;28;20230;-79
2022/04/23 11:49:26;;;;;;;0.40;0.40;;;17.50;90.70;;;;;;5015976;28;20233;-77
2022/04/23 11:52:14;;;;;;;0.40;0.40;;;17.80;90.10;;;;;;5014660;28;20198;-81
2022/04/23 11:55:03;;;;;;;0.40;0.40;;;18.10;90.00;;;;;;5016742;28;20203;-80
2022/04/23 11:57:55;;;;;;;0.40;0.40;;;18.20;88.20;;;;;;5016817;28;20254;-76
2022/04/23 12:00:47;;;;;;;3.42;2.15;;;18.20;87.60;;;;;;5016747;28;20206;-79
2022/04/23 12:03:35;;;;;;;0.40;0.40;;;18.10;87.10;;;;;;5015132;28;20634;-81
2022/04/23 12:06:26;;;;;;;0.40;0.40;;;17.90;85.80;;;;;;5015878;28;20288;-81
2022/04/23 12:09:14;;;;;;;0.40;0.40;;;18.10;86.70;;;;;;5015256;28;20222;-79
2022/04/23 12:12:02;;;;;;;0.50;0.50;;;18.30;86.50;;;;;;5016159;28;20622;-78
2022/04/23 12:14:51;;;;;;;0.40;0.40;;;18.50;86.20;;;;;;5015641;28;20658;-81
2022/04/23 12:17:45;;;;;;;1.20;0.60;;;18.40;83.20;;;;;;5016439;28;20210;-80
2022/04/23 12:20:36;;;;;;;1.42;1.42;;;18.30;83.80;;;;;;5015358;28;20222;-77
2022/04/23 12:23:25;;;;;;;1.02;1.02;;;18.30;84.40;;;;;;5015990;28;20226;-79
2022/04/23 12:26:18;;;;;;;0.40;0.40;;;18.20;83.90;;;;;;5015647;28;20210;-79
2022/04/23 12:41:38;;;;;;;0.60;0.60;;;18.90;81.10;;;;;;5016891;28;20206;-79
2022/04/23 12:44:34;;;;;;;0.40;0.40;;;18.70;80.50;;;;;;5017503;28;20283;-76
2022/04/23 12:47:28;;;;;;;0.40;0.40;;;19.00;80.00;;;;;;5019555;28;20683;-75
2022/04/23 12:50:27;;;;;;;0.40;0.40;;;20.00;80.30;;;;;;5016801;28;20831;-75
2022/04/23 12:53:36;;;;;;;0.65;0.65;;;21.60;77.50;;;;;;5015731;28;20221;-73
2022/04/23 12:56:35;;;;;;;0.40;0.40;;;23.00;73.60;;;;;;5014480;28;20203;-73
2022/04/23 12:59:23;;;;;;;0.40;0.40;;;23.80;69.50;;;;;;5014162;28;20695;-73
2022/04/23 13:02:11;;;;;;;0.40;0.40;;;24.30;68.70;;;;;;5014672;28;20229;-72
2022/04/23 13:04:59;;;;;;;0.40;0.40;;;25.80;66.40;;;;;;5013862;28;20724;-72
2022/04/23 13:10:57;;;;;;;0.82;0.82;;;29.60;56.80;;;;;;5013878;28;20257;-72
2022/04/23 13:13:45;;;;;;;0.45;0.45;;;31.30;51.80;;;;;;5013991;28;20227;-71
2022/04/23 13:16:36;;;;;;;0.40;0.40;;;31.30;48.00;;;;;;5014547;28;20414;-73
2022/04/23 13:19:24;;;;;;;0.40;0.40;;;32.00;47.10;;;;;;5013456;28;20738;-72
2022/04/23 13:22:12;;;;;;;0.40;0.40;;;32.80;44.40;;;;;;5015160;28;20380;-72
2022/04/23 13:25:00;;;;;;;0.40;0.40;;;33.40;41.90;;;;;;5015248;28;20226;-72
2022/04/23 13:27:50;;;;;;;0.40;0.40;;;33.60;40.60;;;;;;5013827;28;20199;-72
2022/04/23 13:30:38;;;;;;;1.50;1.40;;;34.30;39.30;;;;;;5015678;28;20605;-72
2022/04/23 13:33:26;;;;;;;0.40;0.40;;;35.20;38.40;;;;;;5015396;28;20320;-72
2022/04/23 13:36:14;;;;;;;0.40;0.40;;;35.90;37.90;;;;;;5014377;28;20246;-72
2022/04/23 13:39:02;;;;;;;1.08;0.95;;;36.30;36.00;;;;;;5014588;28;20202;-72
2022/04/23 13:41:50;;;;;;;0.40;0.40;;;36.30;35.60;;;;;;5014472;28;20230;-72
2022/04/23 13:44:41;;;;;;;0.40;0.40;;;36.60;35.60;;;;;;5014873;28;20230;-72
2022/04/23 13:47:29;;;;;;;0.40;0.40;;;36.40;34.30;;;;;;5014495;28;20687;-71
2022/04/23 13:50:17;;;;;;;0.40;0.40;;;36.40;34.00;;;;;;5015794;28;20211;-72
2022/04/23 13:53:05;;;;;;;0.40;0.40;;;36.70;34.10;;;;;;5015468;28;20647;-73
2022/04/23 13:55:53;;;;;;;0.40;0.40;;;37.10;33.50;;;;;;5015996;28;20317;-72
2022/04/23 13:58:42;;;;;;;0.57;0.57;;;37.10;33.30;;;;;;5015203;28;20194;-72
2022/04/23 14:01:31;;;;;;;0.40;0.40;;;36.40;33.00;;;;;;5015386;28;20231;-72
2022/04/23 14:10:31;;;;;;;4.40;1.10;;;30.90;36.30;;;;;;5013962;28;20567;-71
2022/04/23 14:13:19;;;;;;;0.40;0.40;;;30.10;37.80;;;;;;5012155;28;20381;-72
2022/04/23 14:16:09;;;;;;;0.40;0.40;;;30.00;38.60;;;;;;5013321;28;20632;-72
2022/04/23 14:18:58;;;;;;;0.40;0.40;;;30.90;38.70;;;;;;5014074;28;20195;-72
2022/04/23 14:21:46;;;;;;;0.60;0.60;;;31.10;37.80;;;;;;5013802;28;20225;-72
2022/04/23 14:24:35;;;;;;;0.45;0.40;;;31.30;38.00;;;;;;5012882;28;20635;-72
2022/04/23 14:27:23;;;;;;;1.30;1.05;;;31.30;38.00;;;;;;5014047;28;20699;-72
2022/04/23 14:30:11;;;;;;;0.50;0.50;;;31.00;37.80;;;;;;5013278;28;20219;-72
2022/04/23 14:32:59;;;;;;;0.40;0.40;;;29.20;38.50;;;;;;5013336;28;20342;-72
2022/04/23 14:35:49;;;;;;;0.90;0.82;;;27.70;41.00;;;;;;5013155;28;20210;-72
2022/04/23 14:38:39;;;;;;;0.60;0.60;;;27.00;42.10;;;;;;5014048;28;20207;-75
2022/04/23 14:41:27;;;;;;;1.15;1.05;;;26.20;42.10;;;;;;5015028;28;20203;-75
2022/04/23 14:44:16;;;;;;;0.40;0.40;;;25.50;43.50;;;;;;5013960;28;20238;-73
2022/04/23 14:47:05;;;;;;;0.50;0.50;;;25.50;44.30;;;;;;5015425;28;20202;-75
2022/04/23 14:49:58;;;;;;;0.40;0.40;;;25.60;44.00;;;;;;5029921;28;20219;-73
2022/04/23 14:55:55;;;;;;;0.40;0.40;;;24.20;44.30;;;;;;5018647;28;20679;-76
2022/04/23 14:58:43;;;;;;;0.40;0.40;;;24.60;43.70;;;;;;5019395;28;20211;-71
2022/04/23 15:01:33;;;;;;;0.85;0.85;;;25.50;43.50;;;;;;5016986;28;20275;-71
2022/04/23 15:04:22;;;;;;;0.43;0.43;;;26.50;42.70;;;;;;5016874;28;20222;-72
2022/04/23 15:07:10;;;;;;;0.40;0.40;;;27.20;41.40;;;;;;5016884;28;20206;-72
2022/04/23 15:10:00;;;;;;;0.40;0.40;;;27.60;41.90;;;;;;5015905;28;20219;-73
2022/04/23 15:12:48;;;;;;;0.40;0.40;;;29.00;41.20;;;;;;5016160;28;20198;-72
2022/04/23 15:15:38;;;;;;;0.40;0.40;;;30.20;40.50;;;;;;5015135;28;20249;-71
2022/04/23 15:18:26;;;;;;;0.50;0.50;;;30.20;39.10;;;;;;5014093;28;20285;-71
2022/04/23 15:21:14;;;;;;;0.40;0.40;;;29.50;38.50;;;;;;5018444;28;20202;-72
2022/04/23 15:24:02;;;;;;;0.40;0.40;;;28.90;39.60;;;;;;5033463;28;20225;-73
2022/04/23 15:26:52;;;;;;;0.40;0.40;;;27.40;40.50;;;;;;4994335;28;20254;-74
2022/04/23 15:29:40;;;;;;;0.65;0.65;;;26.30;42.40;;;;;;4994108;28;20227;-72
2022/04/23 15:32:29;;;;;;;0.40;0.40;;;27.00;42.10;;;;;;4992307;28;20207;-72
2022/04/23 15:35:17;;;;;;;0.40;0.40;;;28.20;41.80;;;;;;4992507;28;20258;-72
2022/04/23 15:38:05;;;;;;;0.40;0.40;;;29.30;40.70;;;;;;4993137;28;20620;-72
2022/04/23 15:40:53;;;;;;;0.60;0.60;;;30.30;39.70;;;;;;4993207;28;20543;-72